Time;durP1;ratioP1;P1;durP2;ratioP2;P2;SDS_P1;SDS_P2;PMS_P1;PMS_P2;Temp;Humidity;BMP_temperature;BMP_pressure;BME280_temperature;BME280_humidity;BME280_pressure;Samples;Min_cycle;Max_cycle;Signal;HPM_P1;HPM_P2
2021/03/27 00:01:58;;;;;;;;;;;;;;;13.67;48.64;101477.53;5102145;28;19924;-82
2021/03/27 00:04:44;;;;;;;;;;;;;;;13.61;49.23;101476.88;5097610;28;19916;-83
2021/03/27 00:07:35;;;;;;;;;;;;;;;13.58;49.13;101473.97;5083070;28;19916;-82
2021/03/27 00:10:25;;;;;;;;;;;;;;;13.50;49.01;101470.13;5111015;28;19916;-83
2021/03/27 00:13:10;;;;;;;;;;;;;;;13.56;48.81;101478.97;5091541;28;19916;-83
2021/03/27 00:15:54;;;;;;;;;;;;;;;13.60;48.48;101483.50;5095779;28;19923;-81
2021/03/27 00:18:47;;;;;;;;;;;;;;;13.55;48.80;101478.16;5092509;28;19916;-82
2021/03/27 00:21:39;;;;;;;;;;;;;;;13.40;49.04;101475.88;5103537;28;19916;-83
2021/03/27 00:24:32;;;;;;;;;;;;;;;13.53;49.25;101471.38;5101518;28;19916;-83
2021/03/27 00:27:21;;;;;;;;;;;;;;;13.53;49.02;101466.72;5098945;28;19915;-81
2021/03/27 00:30:09;;;;;;;;;;;;;;;13.35;49.87;101477.94;5104476;28;19924;-83
2021/03/27 00:32:55;;;;;;;;;;;;;;;13.36;49.36;101474.84;5097617;28;19916;-84
2021/03/27 00:35:42;;;;;;;;;;;;;;;13.08;49.70;101470.69;5085829;28;19920;-81
2021/03/27 00:38:34;;;;;;;;;;;;;;;12.94;50.31;101469.97;5101941;28;19916;-83
2021/03/27 00:41:32;;;;;;;;;;;;;;;13.22;50.09;101464.03;5099300;28;19915;-81
2021/03/27 00:44:18;;;;;;;;;;;;;;;13.25;49.99;101463.44;5098845;28;19916;-82
2021/03/27 00:47:04;;;;;;;;;;;;;;;13.34;49.29;101463.47;5079770;28;20387;-81
2021/03/27 00:49:54;;;;;;;;;;;;;;;13.30;49.63;101461.69;5094722;28;21306;-81
2021/03/27 00:52:45;;;;;;;;;;;;;;;13.26;49.60;101464.22;5107910;28;19916;-84
2021/03/27 00:55:36;;;;;;;;;;;;;;;13.41;49.19;101452.09;5085607;28;19920;-83
2021/03/27 00:58:25;;;;;;;;;;;;;;;13.43;49.19;101456.09;5101926;28;19916;-85
2021/03/27 01:01:11;;;;;;;;;;;;;;;13.20;49.72;101457.28;5097896;28;19919;-84
2021/03/27 01:04:16;;;;;;;;;;;;;;;13.24;49.60;101450.88;5087105;28;19916;-82
2021/03/27 01:07:21;;;;;;;;;;;;;;;13.21;49.62;101456.97;5104662;28;20395;-83
2021/03/27 01:10:34;;;;;;;;;;;;;;;13.23;49.79;101445.72;5102172;28;19916;-82
2021/03/27 01:13:31;;;;;;;;;;;;;;;13.20;49.88;101449.09;5051300;28;1455932;-82
2021/03/27 01:16:19;;;;;;;;;;;;;;;13.13;50.20;101446.00;5080014;28;19920;-83
2021/03/27 01:19:11;;;;;;;;;;;;;;;13.16;49.76;101442.63;5083375;28;20379;-83
2021/03/27 01:21:56;;;;;;;;;;;;;;;13.14;49.48;101444.88;5106274;28;19916;-82
2021/03/27 01:24:43;;;;;;;;;;;;;;;12.99;49.83;101434.34;5093240;28;19916;-81
2021/03/27 01:27:34;;;;;;;;;;;;;;;13.04;49.94;101436.94;5095460;28;19916;-83
2021/03/27 01:30:23;;;;;;;;;;;;;;;12.76;51.44;101437.09;5100248;28;19916;-82
2021/03/27 01:33:17;;;;;;;;;;;;;;;12.84;51.18;101443.75;5102869;28;19915;-82
2021/03/27 01:36:37;;;;;;;;;;;;;;;12.77;51.41;101446.09;5093261;28;19920;-83
2021/03/27 01:39:25;;;;;;;;;;;;;;;12.72;51.88;101451.69;5021074;28;20382;-82
2021/03/27 01:42:15;;;;;;;;;;;;;;;12.72;52.00;101455.22;5101361;28;19920;-80
2021/03/27 01:45:18;;;;;;;;;;;;;;;12.67;52.31;101447.16;5095615;28;20393;-82
2021/03/27 01:48:23;;;;;;;;;;;;;;;12.76;51.87;101442.56;5097708;28;19920;-83
2021/03/27 01:51:40;;;;;;;;;;;;;;;12.64;52.17;101438.81;5094850;28;19916;-82
2021/03/27 01:54:27;;;;;;;;;;;;;;;12.57;52.43;101444.69;5061606;28;19916;-81
2021/03/27 01:57:22;;;;;;;;;;;;;;;12.49;52.70;101447.38;5093333;28;20393;-82
2021/03/27 02:00:13;;;;;;;;;;;;;;;12.52;52.65;101444.00;5102082;28;19916;-83
2021/03/27 02:03:04;;;;;;;;;;;;;;;12.54;52.61;101442.59;5109830;28;19916;-82
2021/03/27 02:05:54;;;;;;;;;;;;;;;12.71;52.47;101439.16;5096182;28;19916;-83
2021/03/27 02:08:48;;;;;;;;;;;;;;;12.67;51.95;101438.97;5099896;28;19916;-82
2021/03/27 02:11:48;;;;;;;;;;;;;;;12.68;51.94;101440.59;5091575;28;19920;-82
2021/03/27 02:14:48;;;;;;;;;;;;;;;12.75;51.66;101446.41;5102214;28;20399;-82
2021/03/27 02:17:44;;;;;;;;;;;;;;;12.86;51.15;101446.94;5105397;28;19916;-82
2021/03/27 02:20:49;;;;;;;;;;;;;;;12.90;50.82;101436.22;5105348;28;19916;-82
2021/03/27 02:23:33;;;;;;;;;;;;;;;12.83;51.09;101437.47;5100558;28;19920;-84
2021/03/27 02:26:17;;;;;;;;;;;;;;;12.82;51.08;101443.25;5093133;28;20380;-83
2021/03/27 02:29:27;;;;;;;;;;;;;;;12.84;50.94;101430.91;5082367;28;19916;-82
2021/03/27 02:32:12;;;;;;;;;;;;;;;12.69;51.20;101430.50;5093865;28;19916;-82
2021/03/27 02:35:07;;;;;;;;;;;;;;;12.73;51.31;101437.75;5088111;28;19920;-81
2021/03/27 02:38:04;;;;;;;;;;;;;;;12.76;51.03;101439.03;5090735;28;19916;-80
2021/03/27 02:40:56;;;;;;;;;;;;;;;12.80;50.64;101427.16;5094483;28;19916;-82
2021/03/27 02:43:43;;;;;;;;;;;;;;;12.73;50.71;101437.75;5089432;28;19917;-81
2021/03/27 02:46:27;;;;;;;;;;;;;;;12.70;50.75;101435.63;5088650;28;19915;-82
2021/03/27 02:49:24;;;;;;;;;;;;;;;12.80;50.91;101440.81;5093284;28;20327;-82
2021/03/27 02:52:20;;;;;;;;;;;;;;;12.79;51.18;101455.59;5095968;28;19916;-81
2021/03/27 02:55:24;;;;;;;;;;;;;;;12.82;51.04;101459.63;5102254;28;19920;-82
2021/03/27 02:58:14;;;;;;;;;;;;;;;12.61;51.73;101453.03;5089848;28;19916;-81
2021/03/27 03:01:04;;;;;;;;;;;;;;;12.47;52.46;101455.84;5095718;28;19916;-81
2021/03/27 03:03:58;;;;;;;;;;;;;;;12.44;52.57;101446.34;5088292;28;19916;-82
2021/03/27 03:07:15;;;;;;;;;;;;;;;12.41;52.34;101455.16;5095292;28;19916;-83
2021/03/27 03:10:03;;;;;;;;;;;;;;;12.42;52.38;101454.06;5059281;28;19916;-81
2021/03/27 03:12:54;;;;;;;;;;;;;;;12.44;52.34;101467.38;5095542;28;19916;-82
2021/03/27 03:15:56;;;;;;;;;;;;;;;12.54;52.21;101458.97;5095869;28;19928;-80
2021/03/27 03:18:46;;;;;;;;;;;;;;;12.55;52.18;101463.28;5096244;28;19916;-81
2021/03/27 03:21:34;;;;;;;;;;;;;;;12.64;52.03;101469.63;5118507;22;19928;-82
2021/03/27 03:24:21;;;;;;;;;;;;;;;12.60;51.83;101460.44;5096340;28;19920;-84
2021/03/27 03:27:25;;;;;;;;;;;;;;;12.54;51.85;101461.69;5101918;28;20368;-85
2021/03/27 03:30:23;;;;;;;;;;;;;;;12.52;52.23;101463.09;5107061;28;19920;-84
2021/03/27 03:33:14;;;;;;;;;;;;;;;12.63;51.95;101462.56;5119102;28;20303;-84
2021/03/27 03:36:10;;;;;;;;;;;;;;;12.72;51.92;101462.59;5117458;28;19931;-84
2021/03/27 03:39:14;;;;;;;;;;;;;;;12.58;51.93;101456.41;5123437;28;19916;-84
2021/03/27 03:42:11;;;;;;;;;;;;;;;12.59;52.34;101455.31;5104031;28;19919;-85
2021/03/27 03:45:09;;;;;;;;;;;;;;;12.58;52.58;101459.94;5122525;28;19994;-85
2021/03/27 03:48:11;;;;;;;;;;;;;;;12.62;52.10;101463.66;5114612;28;19915;-84
2021/03/27 03:51:03;;;;;;;;;;;;;;;12.53;51.69;101465.53;5124307;28;19916;-84
2021/03/27 03:54:00;;;;;;;;;;;;;;;12.57;52.16;101471.97;5118139;28;19915;-84
2021/03/27 03:56:48;;;;;;;;;;;;;;;12.60;52.22;101465.06;5116546;28;19923;-84
2021/03/27 03:59:46;;;;;;;;;;;;;;;12.71;52.24;101472.72;5105154;28;19916;-84
2021/03/27 04:02:30;;;;;;;;;;;;;;;12.47;52.41;101472.22;5100065;28;19916;-84
2021/03/27 04:05:33;;;;;;;;;;;;;;;12.44;52.12;101470.13;5100299;28;19932;-85
2021/03/27 04:08:56;;;;;;;;;;;;;;;12.38;52.94;101474.06;5113505;28;19915;-84
2021/03/27 04:11:54;;;;;;;;;;;;;;;12.25;53.50;101481.16;5024232;28;19917;-84
2021/03/27 04:14:57;;;;;;;;;;;;;;;12.23;53.70;101474.44;5039950;28;19921;-84
2021/03/27 04:17:48;;;;;;;;;;;;;;;12.20;53.80;101488.66;5118367;28;19923;-84
2021/03/27 04:20:43;;;;;;;;;;;;;;;12.14;53.98;101479.78;5104469;28;19916;-84
2021/03/27 04:23:34;;;;;;;;;;;;;;;12.13;54.15;101489.09;5098930;28;19928;-84
2021/03/27 04:26:36;;;;;;;;;;;;;;;12.12;54.09;101487.47;5090458;28;19916;-84
2021/03/27 04:29:39;;;;;;;;;;;;;;;12.19;54.31;101500.69;5113457;28;19916;-84
2021/03/27 04:32:40;;;;;;;;;;;;;;;12.22;54.28;101491.91;5123304;28;19916;-84
2021/03/27 04:35:33;;;;;;;;;;;;;;;12.11;54.56;101495.94;5128855;28;19920;-83
2021/03/27 04:38:24;;;;;;;;;;;;;;;12.10;53.90;101495.16;5120612;28;19916;-84
2021/03/27 04:41:27;;;;;;;;;;;;;;;12.16;53.50;101487.66;5106910;28;20339;-83
2021/03/27 04:44:21;;;;;;;;;;;;;;;12.10;53.70;101488.88;5119583;28;19915;-84
2021/03/27 04:47:22;;;;;;;;;;;;;;;12.27;53.99;101489.06;5104981;28;20391;-84
2021/03/27 04:50:22;;;;;;;;;;;;;;;12.34;54.03;101498.41;5107867;28;20407;-83
2021/03/27 04:53:14;;;;;;;;;;;;;;;12.37;53.91;101497.00;5100762;28;19924;-84
2021/03/27 04:56:01;;;;;;;;;;;;;;;12.28;54.25;101494.22;5102429;28;19920;-84
2021/03/27 04:59:02;;;;;;;;;;;;;;;12.24;54.56;101506.81;5101254;28;19916;-84
2021/03/27 05:01:47;;;;;;;;;;;;;;;12.15;54.74;101507.84;5106959;28;19916;-84
2021/03/27 05:04:35;;;;;;;;;;;;;;;12.02;55.35;101511.41;5101998;28;20407;-84
2021/03/27 05:07:24;;;;;;;;;;;;;;;11.99;55.58;101510.91;5100047;28;19920;-82
2021/03/27 05:10:09;;;;;;;;;;;;;;;11.97;55.69;101513.16;5111150;28;19920;-82
2021/03/27 05:12:56;;;;;;;;;;;;;;;11.95;56.27;101518.09;5105793;28;19916;-83
2021/03/27 05:15:45;;;;;;;;;;;;;;;11.97;56.21;101507.69;5112305;28;19920;-84
2021/03/27 05:18:36;;;;;;;;;;;;;;;12.05;56.17;101519.78;5103807;28;19920;-84
2021/03/27 05:21:29;;;;;;;;;;;;;;;12.16;56.03;101513.00;5116463;28;19916;-85
2021/03/27 05:24:20;;;;;;;;;;;;;;;12.04;56.40;101512.72;5119169;28;19916;-83
2021/03/27 05:27:23;;;;;;;;;;;;;;;12.10;56.59;101518.88;5120465;28;19924;-84
2021/03/27 05:30:20;;;;;;;;;;;;;;;12.12;55.89;101527.56;5111954;28;19915;-83
2021/03/27 05:33:08;;;;;;;;;;;;;;;12.20;55.38;101535.81;5110333;28;19916;-84
2021/03/27 05:36:11;;;;;;;;;;;;;;;12.15;55.51;101535.13;5101174;28;19920;-84
2021/03/27 05:38:56;;;;;;;;;;;;;;;12.20;55.74;101537.75;5098045;28;19916;-84
2021/03/27 05:41:52;;;;;;;;;;;;;;;12.14;56.21;101536.25;5105036;28;19916;-84
2021/03/27 05:45:16;;;;;;;;;;;;;;;12.18;56.15;101531.81;5111089;28;19916;-84
2021/03/27 05:48:00;;;;;;;;;;;;;;;12.10;55.64;101533.31;5035749;28;19917;-84
2021/03/27 05:50:57;;;;;;;;;;;;;;;11.97;56.17;101532.22;5037270;28;19924;-84
2021/03/27 05:53:53;;;;;;;;;;;;;;;12.08;55.94;101526.56;5104506;28;19916;-85
2021/03/27 05:56:57;;;;;;;;;;;;;;;12.04;56.33;101539.97;5124410;28;19920;-86
2021/03/27 05:59:47;;;;;;;;;;;;;;;11.92;56.75;101539.69;5106276;28;19916;-87
2021/03/27 06:02:41;;;;;;;;;;;;;;;11.83;57.58;101533.34;5102791;28;19916;-86
2021/03/27 06:05:34;;;;;;;;;;;;;;;11.91;57.30;101530.72;5095367;28;19917;-87
2021/03/27 06:08:36;;;;;;;;;;;;;;;11.89;57.48;101535.66;5106117;28;19924;-87
2021/03/27 06:11:23;;;;;;;;;;;;;;;11.94;57.50;101535.53;5112608;28;19920;-87
2021/03/27 06:14:11;;;;;;;;;;;;;;;12.00;57.51;101545.25;5102124;28;19916;-87
2021/03/27 06:17:14;;;;;;;;;;;;;;;12.09;57.98;101552.72;5094401;28;19928;-87
2021/03/27 06:20:18;;;;;;;;;;;;;;;12.07;58.26;101552.22;5120110;28;19920;-87
2021/03/27 06:23:08;;;;;;;;;;;;;;;12.08;58.29;101556.56;5105664;28;19916;-87
2021/03/27 06:25:53;;;;;;;;;;;;;;;12.02;58.61;101564.03;5105018;28;19920;-86
2021/03/27 06:28:44;;;;;;;;;;;;;;;12.02;58.62;101564.03;5103985;28;19916;-87
2021/03/27 06:31:47;;;;;;;;;;;;;;;12.03;58.46;101562.13;5093656;28;19916;-87
2021/03/27 06:34:41;;;;;;;;;;;;;;;12.04;58.68;101569.97;5110570;28;19916;-87
2021/03/27 06:37:40;;;;;;;;;;;;;;;12.09;58.81;101569.09;5111780;28;19920;-87
2021/03/27 06:40:43;;;;;;;;;;;;;;;12.21;58.68;101563.91;5108306;28;19916;-88
2021/03/27 06:43:49;;;;;;;;;;;;;;;12.30;58.70;101562.88;5111503;28;19916;-86
2021/03/27 06:46:34;;;;;;;;;;;;;;;12.38;58.80;101564.91;5107762;28;19916;-86
2021/03/27 06:49:30;;;;;;;;;;;;;;;12.38;58.88;101558.63;5116710;28;19915;-85
2021/03/27 06:52:33;;;;;;;;;;;;;;;12.27;59.36;101557.22;5115385;28;19916;-85
2021/03/27 06:55:32;;;;;;;;;;;;;;;12.27;59.35;101549.06;5125337;28;19916;-85
2021/03/27 06:58:19;;;;;;;;;;;;;;;12.35;58.90;101561.94;5129386;28;19915;-87
2021/03/27 07:01:22;;;;;;;;;;;;;;;12.25;59.29;101559.44;5118413;28;19915;-87
2021/03/27 07:04:16;;;;;;;;;;;;;;;12.23;59.51;101570.69;5109229;28;19917;-84
2021/03/27 07:07:00;;;;;;;;;;;;;;;12.35;59.34;101572.84;5094593;28;19924;-86
2021/03/27 07:09:51;;;;;;;;;;;;;;;12.48;59.00;101573.97;5123623;28;19919;-85
2021/03/27 07:12:38;;;;;;;;;;;;;;;12.51;58.15;101573.34;5128663;28;19915;-87
2021/03/27 07:15:23;;;;;;;;;;;;;;;12.52;58.30;101572.22;5126888;28;19915;-85
2021/03/27 07:18:13;;;;;;;;;;;;;;;12.60;58.25;101569.56;5127655;28;19915;-86
2021/03/27 07:21:06;;;;;;;;;;;;;;;12.61;58.45;101559.47;5110136;28;19917;-86
2021/03/27 07:24:00;;;;;;;;;;;;;;;12.66;58.26;101565.59;5123728;28;19924;-86
2021/03/27 07:26:54;;;;;;;;;;;;;;;12.81;57.92;101570.72;5114228;28;19916;-85
2021/03/27 07:29:38;;;;;;;;;;;;;;;13.10;56.44;101569.50;5123392;28;19920;-85
2021/03/27 07:32:42;;;;;;;;;;;;;;;12.88;56.79;101572.22;5122753;28;19915;-83
2021/03/27 07:35:32;;;;;;;;;;;;;;;12.92;56.29;101571.28;5121669;28;19916;-85
2021/03/27 07:38:23;;;;;;;;;;;;;;;12.83;56.33;101571.22;5118558;28;19916;-84
2021/03/27 07:41:17;;;;;;;;;;;;;;;13.00;56.03;101583.41;5115823;27;19916;-83
2021/03/27 07:44:20;;;;;;;;;;;;;;;13.15;55.08;101585.78;5127216;27;20349;-84
2021/03/27 07:47:05;;;;;;;;;;;;;;;13.10;55.68;101594.06;5106695;28;19916;-84
2021/03/27 07:49:49;;;;;;;;;;;;;;;13.12;54.88;101591.84;5113091;28;19920;-84
2021/03/27 07:52:37;;;;;;;;;;;;;;;13.31;54.59;101594.41;5122010;28;19916;-84
2021/03/27 07:55:27;;;;;;;;;;;;;;;13.20;54.65;101602.03;5124335;28;19941;-85
2021/03/27 07:58:35;;;;;;;;;;;;;;;13.22;54.36;101605.25;5114957;28;20299;-84
2021/03/27 08:01:32;;;;;;;;;;;;;;;13.20;54.77;101607.50;5106733;28;19915;-85
2021/03/27 08:04:37;;;;;;;;;;;;;;;13.18;54.23;101601.53;5107973;28;19916;-86
2021/03/27 08:07:34;;;;;;;;;;;;;;;13.37;53.58;101593.94;5110325;28;19915;-86
2021/03/27 08:10:19;;;;;;;;;;;;;;;13.51;53.48;101600.13;5119956;28;19924;-89
2021/03/27 08:13:24;;;;;;;;;;;;;;;13.49;53.75;101602.38;5109519;28;19915;-89
2021/03/27 08:16:11;;;;;;;;;;;;;;;13.47;53.90;101606.53;5128051;28;19920;-86
2021/03/27 08:18:58;;;;;;;;;;;;;;;13.47;53.86;101610.06;5115106;28;19916;-86
2021/03/27 08:21:54;;;;;;;;;;;;;;;13.58;53.36;101611.44;5104769;28;19916;-86
2021/03/27 08:25:02;;;;;;;;;;;;;;;13.78;53.04;101612.00;5103463;28;19916;-87
2021/03/27 08:27:47;;;;;;;;;;;;;;;13.75;52.59;101609.91;5081947;28;20291;-86
2021/03/27 08:30:35;;;;;;;;;;;;;;;13.85;52.76;101615.09;5106174;28;19916;-86
2021/03/27 08:33:31;;;;;;;;;;;;;;;14.00;52.64;101614.69;5120711;28;19923;-85
2021/03/27 08:36:34;;;;;;;;;;;;;;;14.10;52.63;101617.94;5129264;27;19920;-85
2021/03/27 08:39:19;;;;;;;;;;;;;;;14.09;52.65;101621.00;5127540;27;19920;-84
2021/03/27 08:42:06;;;;;;;;;;;;;;;14.23;52.28;101626.34;5129365;27;19916;-86
2021/03/27 08:44:55;;;;;;;;;;;;;;;14.30;52.64;101622.03;5134316;27;19923;-83
2021/03/27 08:47:41;;;;;;;;;;;;;;;14.45;52.29;101626.28;5113514;27;19916;-86
2021/03/27 08:50:40;;;;;;;;;;;;;;;14.43;51.40;101628.50;5124174;27;19915;-83
2021/03/27 08:53:37;;;;;;;;;;;;;;;14.35;51.34;101635.56;5131077;27;19916;-83
2021/03/27 08:56:45;;;;;;;;;;;;;;;14.47;50.55;101630.31;5128519;27;19919;-83
2021/03/27 08:59:29;;;;;;;;;;;;;;;14.53;51.07;101644.63;5139678;27;19920;-83
2021/03/27 09:02:14;;;;;;;;;;;;;;;14.38;51.47;101645.06;5101552;28;20396;-84
2021/03/27 09:05:17;;;;;;;;;;;;;;;14.52;51.84;101645.78;5084871;28;19931;-83
2021/03/27 09:08:12;;;;;;;;;;;;;;;14.62;51.51;101639.19;5104225;28;19916;-83
2021/03/27 09:11:20;;;;;;;;;;;;;;;14.64;51.73;101635.00;5126189;27;20387;-83
2021/03/27 09:14:20;;;;;;;;;;;;;;;14.74;51.74;101639.34;5116479;27;19920;-82
2021/03/27 09:17:05;;;;;;;;;;;;;;;14.82;51.90;101633.09;5114229;27;19920;-83
2021/03/27 09:20:03;;;;;;;;;;;;;;;14.80;50.97;101629.88;5133931;27;19916;-85
2021/03/27 09:23:02;;;;;;;;;;;;;;;14.94;51.02;101622.28;5119366;28;20379;-83
2021/03/27 09:26:06;;;;;;;;;;;;;;;15.01;51.07;101630.84;5119295;28;20383;-83
2021/03/27 09:28:56;;;;;;;;;;;;;;;14.99;51.77;101630.34;5122679;28;20303;-83
2021/03/27 09:31:41;;;;;;;;;;;;;;;15.14;51.81;101632.59;5111574;28;19916;-83
2021/03/27 09:34:29;;;;;;;;;;;;;;;15.37;51.47;101638.72;5097937;28;19920;-83
2021/03/27 09:37:45;;;;;;;;;;;;;;;;;;;;;
2021/03/27 09:41:21;;;;;;;;;;;;;;;15.46;49.23;101642.25;5064797;28;19925;-85
2021/03/27 09:44:35;;;;;;;;;;;;;;;15.57;48.87;101648.22;5060403;28;19916;-85
2021/03/27 09:47:27;;;;;;;;;;;;;;;15.83;48.11;101641.53;5054045;28;19917;-84
2021/03/27 09:50:17;;;;;;;;;;;;;;;15.86;48.26;101645.56;5039857;28;19917;-85
2021/03/27 09:53:21;;;;;;;;;;;;;;;16.04;48.59;101647.13;5050648;28;19924;-85
2021/03/27 09:56:09;;;;;;;;;;;;;;;16.08;48.08;101645.31;5053121;28;19920;-84
2021/03/27 09:59:12;;;;;;;;;;;;;;;16.15;47.44;101653.81;5054156;28;19917;-85
2021/03/27 10:02:11;;;;;;;;;;;;;;;16.08;47.55;101650.81;5059685;28;19928;-84
2021/03/27 10:04:59;;;;;;;;;;;;;;;16.11;47.16;101654.81;5060024;28;19916;-82
2021/03/27 10:08:02;;;;;;;;;;;;;;;16.11;46.48;101652.06;5057384;28;19917;-84
2021/03/27 10:10:50;;;;;;;;;;;;;;;15.96;46.11;101647.13;5059720;28;20376;-82
2021/03/27 10:13:43;;;;;;;;;;;;;;;15.98;46.43;101644.88;5059646;28;19917;-82
2021/03/27 10:16:46;;;;;;;;;;;;;;;15.86;46.37;101650.22;5059673;28;19924;-83
2021/03/27 10:19:48;;;;;;;;;;;;;;;15.87;47.20;101647.16;5044872;28;19916;-83
2021/03/27 10:22:38;;;;;;;;;;;;;;;16.00;46.07;101654.38;5059559;28;19916;-84
2021/03/27 10:25:23;;;;;;;;;;;;;;;15.96;46.42;101650.69;5059382;28;20389;-83
2021/03/27 10:28:26;;;;;;;;;;;;;;;15.83;46.56;101643.47;5056188;28;19921;-84
2021/03/27 10:31:34;;;;;;;;;;;;;;;15.98;45.92;101648.44;5059459;28;19917;-82
2021/03/27 10:34:28;;;;;;;;;;;;;;;15.89;46.29;101644.91;5055888;28;20381;-83
2021/03/27 10:37:31;;;;;;;;;;;;;;;15.95;46.46;101643.56;5057595;28;19921;-82
2021/03/27 10:40:34;;;;;;;;;;;;;;;15.99;46.16;101643.75;5056288;28;19917;-81
2021/03/27 10:43:22;;;;;;;;;;;;;;;16.07;45.63;101651.94;5046007;28;19917;-82
2021/03/27 10:46:19;;;;;;;;;;;;;;;16.03;45.57;101645.50;5077610;28;19921;-80
2021/03/27 10:49:11;;;;;;;;;;;;;;;15.96;45.88;101650.69;5073790;28;19924;-85
2021/03/27 10:52:14;;;;;;;;;;;;;;;15.97;45.61;101646.81;5048410;28;19917;-84
2021/03/27 10:55:02;;;;;;;;;;;;;;;15.95;45.43;101649.06;5058257;28;19916;-87
2021/03/27 10:58:16;;;;;;;;;;;;;;;15.84;45.98;101639.59;5057387;28;19921;-89
2021/03/27 11:01:17;;;;;;;;;;;;;;;15.97;46.34;101641.31;5010847;28;19917;-87
2021/03/27 11:04:20;;;;;;;;;;;;;;;16.27;46.77;101633.91;5057309;28;19917;-85
2021/03/27 11:07:21;;;;;;;;;;;;;;;16.50;45.88;101639.94;5062088;28;19921;-85
2021/03/27 11:10:26;;;;;;;;;;;;;;;16.45;46.14;101640.13;5076771;28;19916;-85
2021/03/27 11:13:17;;;;;;;;;;;;;;;16.42;46.51;101640.78;5061746;28;19920;-84
2021/03/27 11:16:13;;;;;;;;;;;;;;;16.46;46.29;101639.78;5060022;28;20300;-85
2021/03/27 11:19:17;;;;;;;;;;;;;;;16.61;45.69;101632.94;5061245;28;19920;-82
2021/03/27 11:22:17;;;;;;;;;;;;;;;16.61;45.65;101636.47;5060618;28;19917;-85
2021/03/27 11:25:20;;;;;;;;;;;;;;;16.82;45.19;101632.94;5057982;28;19925;-82
2021/03/27 11:28:14;;;;;;;;;;;;;;;16.94;45.35;101639.31;5059426;28;19917;-83
2021/03/27 11:31:02;;;;;;;;;;;;;;;16.95;45.33;101642.88;5060358;28;19917;-84
2021/03/27 11:34:22;;;;;;;;;;;;;;;17.03;45.24;101637.31;5051342;28;19917;-82
2021/03/27 11:37:25;;;;;;;;;;;;;;;17.38;44.27;101620.50;5017846;28;20337;-84
2021/03/27 11:40:25;;;;;;;;;;;;;;;17.39;43.96;101620.16;5064098;28;19920;-86
2021/03/27 11:43:21;;;;;;;;;;;;;;;17.61;43.96;101613.50;5064670;28;19917;-82
2021/03/27 11:46:13;;;;;;;;;;;;;;;17.76;43.67;101612.84;5058691;28;20438;-83
2021/03/27 11:49:27;;;;;;;;;;;;;;;17.84;42.94;101617.41;5057819;28;19920;-82
2021/03/27 11:52:19;;;;;;;;;;;;;;;17.76;43.01;101612.84;5052744;28;19917;-83
2021/03/27 11:55:22;;;;;;;;;;;;;;;17.63;43.02;101619.44;5076444;28;19920;-82
2021/03/27 11:58:25;;;;;;;;;;;;;;;17.72;43.65;101613.88;5064302;28;19921;-80
2021/03/27 12:01:12;;;;;;;;;;;;;;;17.76;43.66;101607.34;5062085;28;19916;-85
2021/03/27 12:04:15;;;;;;;;;;;;;;;17.74;43.33;101606.88;5074260;28;20296;-83
2021/03/27 12:07:03;;;;;;;;;;;;;;;18.03;43.47;101607.81;5057530;28;19917;-82
2021/03/27 12:09:59;;;;;;;;;;;;;;;18.11;42.28;101602.19;5064240;28;19920;-85
2021/03/27 12:12:55;;;;;;;;;;;;;;;18.17;42.37;101605.53;5048937;28;20300;-83
2021/03/27 12:15:59;;;;;;;;;;;;;;;18.33;42.78;101600.94;5055747;28;19920;-82
2021/03/27 12:18:43;;;;;;;;;;;;;;;18.32;42.46;101600.13;5062720;28;19920;-81
2021/03/27 12:21:30;;;;;;;;;;;;;;;18.47;41.84;101601.38;5053692;28;19951;-84
2021/03/27 12:24:34;;;;;;;;;;;;;;;18.41;41.83;101594.47;5071875;28;20024;-83
2021/03/27 12:27:57;;;;;;;;;;;;;;;18.58;42.16;101591.50;5027707;28;19924;-84
2021/03/27 12:30:44;;;;;;;;;;;;;;;18.65;41.01;101599.16;4982086;28;19918;-85
2021/03/27 12:33:32;;;;;;;;;;;;;;;18.68;40.73;101582.75;5063392;28;19917;-85
2021/03/27 12:36:30;;;;;;;;;;;;;;;18.79;40.62;101583.06;5048550;28;19916;-84
2021/03/27 12:39:23;;;;;;;;;;;;;;;18.77;41.22;101577.09;5060403;28;19917;-83
2021/03/27 12:42:19;;;;;;;;;;;;;;;18.82;40.91;101582.34;5063296;28;19920;-83
2021/03/27 12:45:07;;;;;;;;;;;;;;;18.70;41.29;101576.88;5062701;28;19917;-84
2021/03/27 12:48:20;;;;;;;;;;;;;;;18.72;41.59;101574.59;5059119;28;19920;-85
2021/03/27 12:51:12;;;;;;;;;;;;;;;18.82;41.31;101578.78;5055172;28;19917;-83
2021/03/27 12:54:16;;;;;;;;;;;;;;;19.08;40.67;101573.66;5055163;28;19920;-82
2021/03/27 12:57:19;;;;;;;;;;;;;;;19.18;40.88;101565.66;5057760;28;19921;-82
2021/03/27 13:00:22;;;;;;;;;;;;;;;18.83;39.98;101566.63;5042650;28;19917;-84
2021/03/27 13:03:14;;;;;;;;;;;;;;;18.58;41.50;101571.41;5050728;28;19917;-84
2021/03/27 13:06:29;;;;;;;;;;;;;;;18.62;41.27;101564.06;5059413;28;19921;-86
2021/03/27 13:09:13;;;;;;;;;;;;;;;18.61;41.18;101566.00;5057763;28;19917;-83
2021/03/27 13:11:57;;;;;;;;;;;;;;;18.55;41.47;101559.13;5045556;28;19921;-83
2021/03/27 13:15:01;;;;;;;;;;;;;;;18.40;42.13;101557.06;5059936;28;19917;-86
2021/03/27 13:17:48;;;;;;;;;;;;;;;18.42;42.17;101556.72;5058201;28;19921;-84
2021/03/27 13:20:48;;;;;;;;;;;;;;;18.49;42.05;101556.94;5060072;28;20297;-84
2021/03/27 13:23:37;;;;;;;;;;;;;;;18.42;41.84;101554.78;5060996;28;20381;-86
2021/03/27 13:26:24;;;;;;;;;;;;;;;18.48;41.58;101549.84;5053917;28;19916;-83
2021/03/27 13:29:34;;;;;;;;;;;;;;;18.59;41.44;101546.25;5038466;28;19921;-80
2021/03/27 13:32:29;;;;;;;;;;;;;;;18.77;41.11;101542.06;5054974;28;19921;-81
2021/03/27 13:35:16;;;;;;;;;;;;;;;18.77;41.24;101528.28;5059859;28;19916;-81
2021/03/27 13:38:10;;;;;;;;;;;;;;;18.63;41.51;101538.91;5056939;28;19921;-81
2021/03/27 13:40:57;;;;;;;;;;;;;;;18.83;41.60;101528.03;5050986;28;19917;-80
2021/03/27 13:43:50;;;;;;;;;;;;;;;18.75;41.66;101525.06;5074576;28;19917;-78
2021/03/27 13:46:39;;;;;;;;;;;;;;;18.86;41.17;101528.13;5075012;28;19924;-81
2021/03/27 13:49:25;;;;;;;;;;;;;;;19.19;40.85;101525.91;5074423;28;19920;-81
2021/03/27 13:52:20;;;;;;;;;;;;;;;19.35;40.17;101525.91;5077802;28;19920;-80
2021/03/27 13:55:15;;;;;;;;;;;;;;;19.35;39.88;101525.91;5074654;28;19921;-80
2021/03/27 13:58:11;;;;;;;;;;;;;;;19.23;39.98;101523.25;5038382;28;19921;-81
2021/03/27 14:00:59;;;;;;;;;;;;;;;19.24;39.80;101519.34;5022180;28;19917;-80
2021/03/27 14:03:47;;;;;;;;;;;;;;;19.36;39.77;101519.25;5034233;28;19917;-79
2021/03/27 14:06:57;;;;;;;;;;;;;;;19.27;39.34;101518.63;5037745;28;19917;-80
2021/03/27 14:09:52;;;;;;;;;;;;;;;18.86;40.16;101510.78;5053105;28;19917;-82
2021/03/27 14:12:43;;;;;;;;;;;;;;;18.89;39.84;101513.66;5038289;28;19917;-83
2021/03/27 14:15:33;;;;;;;;;;;;;;;18.86;39.99;101519.06;5035517;28;20369;-79
2021/03/27 14:18:17;;;;;;;;;;;;;;;18.95;40.02;101515.00;5057779;28;19921;-80
2021/03/27 14:21:21;;;;;;;;;;;;;;;19.26;39.65;101505.97;5072330;28;19917;-81
2021/03/27 14:24:36;;;;;;;;;;;;;;;19.41;39.00;101509.91;5053096;28;19917;-80
2021/03/27 14:27:39;;;;;;;;;;;;;;;19.32;39.00;101501.81;5054732;28;19917;-80
2021/03/27 14:30:48;;;;;;;;;;;;;;;19.39;39.71;101502.00;5054376;28;19917;-79
2021/03/27 14:34:05;;;;;;;;;;;;;;;19.37;39.46;101503.50;5056657;28;19916;-79
2021/03/27 14:37:05;;;;;;;;;;;;;;;19.19;39.72;101495.56;5019663;28;20304;-79
2021/03/27 14:39:51;;;;;;;;;;;;;;;19.76;39.01;101504.50;5056205;28;19917;-80
2021/03/27 14:42:35;;;;;;;;;;;;;;;19.37;39.41;101509.81;5039033;28;19917;-80
2021/03/27 14:45:20;;;;;;;;;;;;;;;19.31;39.52;101508.47;5052452;28;19916;-81
2021/03/27 14:48:04;;;;;;;;;;;;;;;19.27;39.41;101509.53;5059294;28;19917;-81
2021/03/27 14:51:04;;;;;;;;;;;;;;;19.23;39.10;101507.50;5059617;28;19920;-80
2021/03/27 14:53:55;;;;;;;;;;;;;;;19.06;39.58;101510.56;5056044;28;19921;-81
2021/03/27 14:56:41;;;;;;;;;;;;;;;19.04;39.83;101510.16;5054551;28;19917;-80
2021/03/27 14:59:30;;;;;;;;;;;;;;;18.83;40.07;101506.00;5057645;28;19917;-80
2021/03/27 15:02:28;;;;;;;;;;;;;;;18.99;40.01;101493.06;5053661;28;19917;-82